Time;durP1;ratioP1;P1;durP2;ratioP2;P2;SDS_P1;SDS_P2;PMS_P1;PMS_P2;Temp;Humidity;BMP_temperature;BMP_pressure;BME280_temperature;BME280_humidity;BME280_pressure;Samples;Min_cycle;Max_cycle;Signal;HPM_P1;HPM_P2
2023/10/12 00:01:14;;;;;;;8.32;3.30;;;;;;;;;;5046534;28;20207;-65
2023/10/12 00:03:44;;;;;;;7.72;3.60;;;;;;;;;;5032361;28;20200;-64
2023/10/12 00:06:13;;;;;;;7.30;3.53;;;;;;;;;;5046509;28;20290;-65
2023/10/12 00:08:41;;;;;;;4.35;3.38;;;;;;;;;;5047114;28;20295;-64
2023/10/12 00:11:08;;;;;;;6.78;3.72;;;;;;;;;;5046465;28;20211;-66
2023/10/12 00:13:41;;;;;;;5.28;3.60;;;;;;;;;;5046453;28;20223;-66
2023/10/12 00:16:09;;;;;;;7.20;3.53;;;;;;;;;;5046083;28;20200;-66
2023/10/12 00:18:38;;;;;;;7.13;3.92;;;;;;;;;;5046532;28;20287;-65
2023/10/12 00:21:14;;;;;;;8.43;3.58;;;;;;;;;;5045736;28;20203;-63
2023/10/12 00:23:46;;;;;;;5.88;3.58;;;;;;;;;;5046296;28;20212;-66
2023/10/12 00:26:13;;;;;;;5.07;3.17;;;;;;;;;;5045563;28;20586;-66
2023/10/12 00:28:44;;;;;;;5.50;3.10;;;;;;;;;;5045977;28;20215;-63
2023/10/12 00:31:17;;;;;;;6.78;3.20;;;;;;;;;;5044694;28;20242;-63
2023/10/12 00:33:45;;;;;;;10.70;3.47;;;;;;;;;;5045775;28;20196;-66
2023/10/12 00:36:21;;;;;;;9.57;3.47;;;;;;;;;;5045733;28;20258;-65
2023/10/12 00:38:52;;;;;;;8.45;3.63;;;;;;;;;;5045720;28;20265;-66
2023/10/12 00:41:19;;;;;;;6.82;3.55;;;;;;;;;;5045784;28;20617;-63
2023/10/12 00:43:50;;;;;;;9.98;3.55;;;;;;;;;;5046267;28;20259;-65
2023/10/12 00:46:21;;;;;;;5.75;3.92;;;;;;;;;;5045310;28;20224;-63
2023/10/12 00:48:50;;;;;;;8.98;3.28;;;;;;;;;;5045201;28;20708;-63
2023/10/12 00:51:18;;;;;;;5.30;3.78;;;;;;;;;;5044926;28;20823;-63
2023/10/12 00:53:55;;;;;;;8.82;3.28;;;;;;;;;;5049312;28;20200;-63
2023/10/12 00:56:24;;;;;;;6.63;3.97;;;;;;;;;;5048283;28;20625;-63
2023/10/12 00:58:54;;;;;;;6.10;3.42;;;;;;;;;;5049632;28;20215;-66
2023/10/12 01:01:22;;;;;;;7.75;3.28;;;;;;;;;;5049011;28;20265;-66
2023/10/12 01:03:50;;;;;;;5.57;3.83;;;;;;;;;;5049087;28;20677;-64
2023/10/12 01:06:28;;;;;;;4.65;3.63;;;;;;;;;;5048826;28;20238;-64
2023/10/12 01:08:59;;;;;;;5.05;3.45;;;;;;;;;;5049319;28;20204;-63
2023/10/12 01:11:28;;;;;;;8.68;3.25;;;;;;;;;;5048973;28;20678;-64
2023/10/12 01:14:09;;;;;;;9.25;3.65;;;;;;;;;;5049176;28;20338;-64
2023/10/12 01:16:54;;;;;;;5.97;3.83;;;;;;;;;;5040481;28;20682;-63
2023/10/12 01:19:24;;;;;;;4.07;3.25;;;;;;;;;;5048819;28;20219;-64
2023/10/12 01:21:54;;;;;;;3.90;3.38;;;;;;;;;;5049230;28;20257;-64
2023/10/12 01:24:29;;;;;;;8.85;4.05;;;;;;;;;;5043874;28;20211;-64
2023/10/12 01:26:57;;;;;;;9.57;3.70;;;;;;;;;;5048802;28;20207;-64
2023/10/12 01:29:25;;;;;;;8.85;3.95;;;;;;;;;;5049547;28;20227;-64
2023/10/12 01:32:08;;;;;;;4.95;3.58;;;;;;;;;;5047822;28;20940;-63
2023/10/12 01:34:37;;;;;;;5.65;4.10;;;;;;;;;;5049117;28;20282;-64
2023/10/12 01:37:11;;;;;;;10.48;4.22;;;;;;;;;;5049400;28;20254;-64
2023/10/12 01:39:39;;;;;;;4.30;3.40;;;;;;;;;;5048972;28;20579;-64
2023/10/12 01:42:07;;;;;;;6.97;3.38;;;;;;;;;;5049166;28;20203;-66
2023/10/12 01:44:35;;;;;;;8.30;3.60;;;;;;;;;;5048985;28;21032;-64
2023/10/12 01:47:02;;;;;;;5.97;3.83;;;;;;;;;;5048364;28;20739;-64
2023/10/12 01:49:30;;;;;;;4.45;3.30;;;;;;;;;;5049487;28;20289;-64
2023/10/12 01:51:58;;;;;;;3.55;3.22;;;;;;;;;;5048193;28;20770;-64
2023/10/12 01:54:28;;;;;;;5.22;3.63;;;;;;;;;;5048942;28;20212;-64
2023/10/12 01:56:55;;;;;;;9.10;3.60;;;;;;;;;;5041313;28;20302;-63
2023/10/12 01:59:25;;;;;;;7.72;4.03;;;;;;;;;;5048487;28;20212;-63
2023/10/12 02:02:00;;;;;;;5.50;2.95;;;;;;;;;;5047983;28;20210;-63
2023/10/12 02:04:27;;;;;;;12.05;4.05;;;;;;;;;;5048475;28;20644;-64
2023/10/12 02:06:56;;;;;;;3.67;3.38;;;;;;;;;;5048188;28;20208;-63
2023/10/12 02:09:23;;;;;;;10.70;3.70;;;;;;;;;;5047999;28;20385;-63
2023/10/12 02:11:54;;;;;;;6.40;3.58;;;;;;;;;;5047810;28;20215;-63
2023/10/12 02:14:32;;;;;;;7.93;3.03;;;;;;;;;;5048274;28;20196;-64
2023/10/12 02:17:02;;;;;;;8.00;3.25;;;;;;;;;;5048768;28;20684;-63
2023/10/12 02:19:34;;;;;;;4.93;2.97;;;;;;;;;;5048438;28;20203;-64
2023/10/12 02:22:03;;;;;;;5.90;3.15;;;;;;;;;;5048233;28;20207;-64
2023/10/12 02:24:30;;;;;;;7.75;3.72;;;;;;;;;;5048284;28;20208;-63
2023/10/12 02:27:00;;;;;;;9.43;3.40;;;;;;;;;;5048063;28;20222;-63
2023/10/12 02:29:29;;;;;;;3.80;3.20;;;;;;;;;;5044139;28;20682;-63
2023/10/12 02:31:58;;;;;;;13.27;4.68;;;;;;;;;;5047381;28;20319;-64
2023/10/12 02:34:27;;;;;;;9.15;3.45;;;;;;;;;;5047581;28;20277;-63
2023/10/12 02:37:15;;;;;;;7.20;3.47;;;;;;;;;;5047961;28;20203;-64
2023/10/12 02:39:43;;;;;;;8.45;3.67;;;;;;;;;;5048564;28;20226;-63
2023/10/12 02:42:17;;;;;;;6.47;3.20;;;;;;;;;;5047924;28;20212;-64
2023/10/12 02:44:57;;;;;;;6.28;3.67;;;;;;;;;;5047926;28;20233;-66
2023/10/12 02:47:24;;;;;;;8.40;3.53;;;;;;;;;;5048092;28;20199;-63
2023/10/12 02:50:00;;;;;;;3.90;3.42;;;;;;;;;;5048278;28;20211;-66
2023/10/12 02:52:28;;;;;;;6.07;3.67;;;;;;;;;;5047827;28;20203;-64
2023/10/12 02:54:56;;;;;;;11.20;3.42;;;;;;;;;;5047843;28;20218;-64
2023/10/12 02:57:25;;;;;;;10.30;3.60;;;;;;;;;;5047151;28;20685;-64
2023/10/12 02:59:57;;;;;;;4.78;3.58;;;;;;;;;;5046832;28;20207;-64
2023/10/12 03:02:32;;;;;;;5.85;3.55;;;;;;;;;;5047296;28;20199;-64
2023/10/12 03:04:59;;;;;;;5.97;3.33;;;;;;;;;;5047682;28;20525;-64
2023/10/12 03:07:27;;;;;;;8.43;3.67;;;;;;;;;;5047833;28;20215;-63
2023/10/12 03:09:58;;;;;;;6.90;3.45;;;;;;;;;;5046659;28;20200;-64
2023/10/12 03:12:32;;;;;;;6.60;3.60;;;;;;;;;;5035513;28;20247;-63
2023/10/12 03:15:01;;;;;;;10.15;4.13;;;;;;;;;;5039230;28;20282;-64
2023/10/12 03:17:28;;;;;;;7.35;3.55;;;;;;;;;;5046289;28;20798;-64
2023/10/12 03:19:57;;;;;;;10.63;3.50;;;;;;;;;;5046792;28;20207;-63
2023/10/12 03:22:31;;;;;;;4.72;3.53;;;;;;;;;;5046622;28;20199;-64
2023/10/12 03:25:13;;;;;;;8.45;3.65;;;;;;;;;;5041531;28;20218;-63
2023/10/12 03:27:43;;;;;;;6.88;3.30;;;;;;;;;;5046084;28;20238;-63
2023/10/12 03:30:17;;;;;;;7.85;3.25;;;;;;;;;;5046225;28;20671;-64
2023/10/12 03:32:45;;;;;;;6.65;3.53;;;;;;;;;;5046085;28;20318;-64
2023/10/12 03:35:22;;;;;;;3.85;3.22;;;;;;;;;;5046730;28;20211;-63
2023/10/12 03:37:53;;;;;;;8.40;3.40;;;;;;;;;;5046760;28;20199;-64
2023/10/12 03:43:11;;;;;;;9.70;3.63;;;;;;;;;;5046087;28;20238;-63
2023/10/12 03:45:49;;;;;;;4.88;3.20;;;;;;;;;;5046077;28;20238;-64
2023/10/12 03:48:33;;;;;;;7.97;3.50;;;;;;;;;;5046626;28;20212;-63
2023/10/12 03:51:12;;;;;;;8.98;3.78;;;;;;;;;;5045973;28;20220;-64
2023/10/12 03:53:45;;;;;;;5.90;3.00;;;;;;;;;;5046275;28;20219;-63
2023/10/12 03:56:14;;;;;;;9.60;3.53;;;;;;;;;;5046091;28;20210;-64
2023/10/12 03:58:47;;;;;;;6.28;3.53;;;;;;;;;;5046193;28;20357;-63
2023/10/12 04:01:23;;;;;;;8.50;3.30;;;;;;;;;;5045454;28;20207;-64
2023/10/12 04:03:58;;;;;;;6.32;3.30;;;;;;;;;;5045004;28;20203;-64
2023/10/12 04:06:55;;;;;;;4.65;3.58;;;;;;;;;;5046324;28;20223;-65
2023/10/12 04:09:15;;;;;;;6.38;3.38;;;;;;;;;;5046693;28;20200;-64
2023/10/12 04:17:07;;;;;;;5.10;3.35;;;;;;;;;;5043083;28;20216;-65
2023/10/12 04:19:34;;;;;;;10.88;4.57;;;;;;;;;;5046897;28;20288;-64
2023/10/12 04:22:24;;;;;;;7.13;3.72;;;;;;;;;;5047356;28;20199;-64
2023/10/12 04:24:54;;;;;;;4.97;3.58;;;;;;;;;;5046815;28;20574;-64
2023/10/12 04:27:41;;;;;;;7.20;2.88;;;;;;;;;;5049010;28;20238;-63
2023/10/12 04:30:22;;;;;;;5.57;3.20;;;;;;;;;;5044503;28;20291;-63
2023/10/12 04:32:57;;;;;;;8.77;3.13;;;;;;;;;;5047880;28;20329;-64
2023/10/12 04:35:43;;;;;;;8.40;3.63;;;;;;;;;;5050531;28;20217;-63
2023/10/12 04:38:23;;;;;;;7.93;3.95;;;;;;;;;;5050368;28;20702;-66
2023/10/12 04:43:33;;;;;;;5.05;3.33;;;;;;;;;;5041404;28;20246;-63
2023/10/12 04:46:26;;;;;;;3.30;3.00;;;;;;;;;;5049393;28;20301;-63
2023/10/12 04:49:01;;;;;;;5.82;3.10;;;;;;;;;;5050558;28;20258;-64
2023/10/12 04:51:30;;;;;;;4.28;3.13;;;;;;;;;;5050404;28;20203;-64
2023/10/12 04:54:04;;;;;;;5.55;3.10;;;;;;;;;;5050529;28;20208;-65
2023/10/12 04:56:36;;;;;;;4.75;3.05;;;;;;;;;;5049121;28;20220;-64
2023/10/12 04:59:16;;;;;;;6.10;3.55;;;;;;;;;;5050576;28;20259;-64
2023/10/12 05:02:13;;;;;;;4.15;3.40;;;;;;;;;;5050041;28;20208;-64
2023/10/12 05:05:14;;;;;;;3.90;3.42;;;;;;;;;;5049567;28;20649;-64
2023/10/12 05:07:27;;;;;;;3.97;3.33;;;;;;;;;;5049511;28;20904;-63
2023/10/12 05:09:55;;;;;;;3.85;3.30;;;;;;;;;;5048793;28;20206;-65
2023/10/12 05:12:24;;;;;;;6.63;3.45;;;;;;;;;;5050051;28;20610;-65
2023/10/12 05:14:55;;;;;;;6.03;3.50;;;;;;;;;;5049400;28;20218;-67
2023/10/12 05:17:23;;;;;;;8.65;3.63;;;;;;;;;;5048068;28;20199;-65
2023/10/12 05:19:52;;;;;;;11.10;3.72;;;;;;;;;;5049239;28;20208;-66
2023/10/12 05:22:19;;;;;;;7.93;3.40;;;;;;;;;;5049711;28;20207;-66
2023/10/12 05:24:47;;;;;;;10.18;3.92;;;;;;;;;;5049884;28;20222;-72
2023/10/12 05:27:23;;;;;;;10.40;3.80;;;;;;;;;;5048861;28;20224;-64
2023/10/12 05:29:52;;;;;;;5.93;3.42;;;;;;;;;;5047120;28;20666;-65
2023/10/12 05:32:24;;;;;;;6.22;3.30;;;;;;;;;;5045863;28;20285;-65
2023/10/12 05:34:53;;;;;;;7.30;3.42;;;;;;;;;;5049275;28;20231;-64
2023/10/12 05:37:37;;;;;;;5.32;3.72;;;;;;;;;;5048407;28;20197;-64
2023/10/12 05:40:10;;;;;;;5.05;3.38;;;;;;;;;;5041203;28;20282;-64
2023/10/12 05:42:39;;;;;;;7.90;3.58;;;;;;;;;;5049346;28;20322;-64
2023/10/12 05:45:21;;;;;;;6.15;3.97;;;;;;;;;;5049224;28;20308;-64
2023/10/12 05:47:52;;;;;;;4.97;3.38;;;;;;;;;;5049485;28;20242;-65
2023/10/12 05:50:23;;;;;;;7.72;3.22;;;;;;;;;;5049481;28;20634;-64
2023/10/12 05:52:51;;;;;;;6.82;3.50;;;;;;;;;;5049375;28;20219;-64
2023/10/12 05:55:21;;;;;;;12.18;4.28;;;;;;;;;;5048913;28;20219;-65
2023/10/12 05:57:49;;;;;;;3.50;3.20;;;;;;;;;;5049167;28;20289;-64
2023/10/12 06:00:34;;;;;;;5.28;3.33;;;;;;;;;;5049633;28;20211;-64
2023/10/12 06:03:01;;;;;;;6.97;3.67;;;;;;;;;;5048891;28;20298;-64
2023/10/12 06:05:30;;;;;;;8.07;4.10;;;;;;;;;;5049115;28;20216;-64
2023/10/12 06:08:02;;;;;;;4.20;3.10;;;;;;;;;;5049290;28;20230;-64
2023/10/12 06:10:29;;;;;;;8.35;3.65;;;;;;;;;;5048509;28;20208;-64
2023/10/12 06:12:57;;;;;;;5.68;3.30;;;;;;;;;;5048761;28;20203;-64
2023/10/12 06:15:25;;;;;;;6.88;3.67;;;;;;;;;;5048503;28;20200;-64
2023/10/12 06:17:55;;;;;;;6.03;3.22;;;;;;;;;;5048824;28;20266;-64
2023/10/12 06:20:31;;;;;;;6.05;3.30;;;;;;;;;;5048391;28;20230;-64
2023/10/12 06:23:05;;;;;;;5.35;3.10;;;;;;;;;;5048931;28;20215;-64
2023/10/12 06:25:33;;;;;;;3.55;3.20;;;;;;;;;;5048042;28;20211;-63
2023/10/12 06:28:05;;;;;;;9.90;4.10;;;;;;;;;;5047557;28;20223;-64
2023/10/12 06:30:34;;;;;;;7.75;3.80;;;;;;;;;;5048755;28;20214;-64
2023/10/12 06:33:04;;;;;;;4.72;3.53;;;;;;;;;;5048052;28;20709;-65
2023/10/12 06:35:34;;;;;;;5.53;3.28;;;;;;;;;;5048289;28;20223;-64
2023/10/12 06:38:22;;;;;;;9.10;3.75;;;;;;;;;;5048885;28;20211;-65
2023/10/12 06:41:00;;;;;;;8.52;3.75;;;;;;;;;;5048815;28;20204;-64
2023/10/12 06:46:15;;;;;;;3.97;3.55;;;;;;;;;;5034867;28;20768;-64
2023/10/12 06:48:44;;;;;;;9.18;3.10;;;;;;;;;;5047569;28;20638;-63
2023/10/12 06:51:13;;;;;;;4.72;3.20;;;;;;;;;;5046630;28;20211;-65
2023/10/12 06:53:44;;;;;;;6.38;3.63;;;;;;;;;;5047201;28;20334;-63
2023/10/12 06:56:24;;;;;;;5.57;3.53;;;;;;;;;;5047217;28;20215;-63
2023/10/12 07:01:37;;;;;;;9.63;3.50;;;;;;;;;;5046963;28;20219;-63
2023/10/12 07:04:08;;;;;;;7.72;4.07;;;;;;;;;;5047251;28;20208;-63
2023/10/12 07:06:38;;;;;;;6.00;3.72;;;;;;;;;;5047385;28;20377;-63
2023/10/12 07:09:07;;;;;;;5.07;3.60;;;;;;;;;;5047138;28;20222;-63
2023/10/12 07:11:39;;;;;;;7.05;3.60;;;;;;;;;;5027327;28;20659;-63
2023/10/12 07:14:06;;;;;;;3.55;3.28;;;;;;;;;;5027032;28;20219;-63
2023/10/12 07:16:43;;;;;;;6.70;3.83;;;;;;;;;;5026984;28;20219;-63
2023/10/12 07:19:10;;;;;;;10.63;3.90;;;;;;;;;;5030117;28;20207;-64
2023/10/12 07:21:37;;;;;;;7.10;3.53;;;;;;;;;;5047074;28;20218;-63
2023/10/12 07:24:07;;;;;;;11.65;3.75;;;;;;;;;;5046231;28;20568;-63
2023/10/12 07:26:36;;;;;;;6.30;3.80;;;;;;;;;;5035599;28;20228;-63
2023/10/12 07:29:19;;;;;;;12.32;3.47;;;;;;;;;;5046108;28;20885;-63
2023/10/12 07:31:48;;;;;;;5.82;3.67;;;;;;;;;;5046589;28;20332;-63
2023/10/12 07:34:18;;;;;;;10.88;3.63;;;;;;;;;;5046188;28;20696;-64
2023/10/12 07:36:52;;;;;;;5.10;3.20;;;;;;;;;;5045886;28;20199;-63
2023/10/12 07:39:19;;;;;;;8.63;3.70;;;;;;;;;;5046440;28;20240;-64
2023/10/12 07:42:00;;;;;;;10.88;3.50;;;;;;;;;;5046792;28;20641;-64
2023/10/12 07:44:28;;;;;;;7.28;4.65;;;;;;;;;;5046127;28;20235;-64
2023/10/12 07:46:56;;;;;;;5.50;3.15;;;;;;;;;;5045965;28;20258;-64
2023/10/12 07:49:30;;;;;;;3.63;3.33;;;;;;;;;;5046643;28;20285;-64
2023/10/12 07:52:07;;;;;;;6.75;3.50;;;;;;;;;;5046819;28;20269;-64
2023/10/12 07:54:47;;;;;;;12.05;4.20;;;;;;;;;;5046291;28;20203;-64
2023/10/12 07:57:17;;;;;;;3.72;3.38;;;;;;;;;;5046290;28;20215;-64
2023/10/12 07:59:58;;;;;;;8.95;4.20;;;;;;;;;;5041663;28;20269;-64
2023/10/12 08:02:59;;;;;;;7.00;3.22;;;;;;;;;;5050051;28;20587;-64
2023/10/12 08:05:42;;;;;;;8.55;3.90;;;;;;;;;;5030247;28;20204;-64
2023/10/12 08:08:17;;;;;;;13.02;3.90;;;;;;;;;;5034208;28;20748;-64
2023/10/12 08:10:58;;;;;;;7.80;3.85;;;;;;;;;;5050266;28;20620;-64
2023/10/12 08:13:27;;;;;;;3.63;3.33;;;;;;;;;;5050467;28;20222;-63
2023/10/12 08:15:58;;;;;;;7.72;4.07;;;;;;;;;;5050196;28;20237;-64
2023/10/12 08:21:17;;;;;;;13.35;4.10;;;;;;;;;;5048376;28;20598;-65
2023/10/12 08:23:49;;;;;;;7.75;4.28;;;;;;;;;;5048924;28;20281;-62
2023/10/12 08:26:33;;;;;;;3.78;3.10;;;;;;;;;;5049941;28;20611;-64
2023/10/12 08:29:08;;;;;;;11.85;4.13;;;;;;;;;;5050155;28;20614;-64
2023/10/12 08:31:35;;;;;;;4.03;3.60;;;;;;;;;;5050007;28;20329;-62
2023/10/12 08:34:13;;;;;;;10.23;3.95;;;;;;;;;;5049447;28;20582;-64
2023/10/12 08:37:07;;;;;;;9.48;4.15;;;;;;;;;;5049682;28;20277;-63
2023/10/12 08:39:37;;;;;;;4.88;3.95;;;;;;;;;;5029754;28;20638;-62
2023/10/12 08:42:29;;;;;;;6.47;3.95;;;;;;;;;;5038656;28;20207;-65
2023/10/12 08:44:58;;;;;;;8.82;3.97;;;;;;;;;;5049780;28;20199;-63
2023/10/12 08:47:31;;;;;;;8.73;4.18;;;;;;;;;;5049650;28;20236;-64
2023/10/12 08:50:02;;;;;;;4.90;3.95;;;;;;;;;;5048655;28;20211;-68
2023/10/12 08:52:30;;;;;;;8.50;4.13;;;;;;;;;;5049468;28;20286;-63
2023/10/12 08:55:03;;;;;;;7.32;4.28;;;;;;;;;;5048900;28;20765;-63
2023/10/12 08:57:35;;;;;;;4.18;3.78;;;;;;;;;;5049520;28;20545;-63
2023/10/12 09:00:24;;;;;;;4.88;4.15;;;;;;;;;;5046641;28;20680;-63
2023/10/12 09:02:52;;;;;;;5.20;4.22;;;;;;;;;;5050360;28;20203;-61
2023/10/12 09:05:24;;;;;;;11.63;4.30;;;;;;;;;;5055087;28;20653;-61
2023/10/12 09:08:06;;;;;;;6.35;4.50;;;;;;;;;;5048715;28;20801;-61
2023/10/12 09:10:36;;;;;;;7.22;4.22;;;;;;;;;;5049309;28;20215;-61
2023/10/12 09:13:04;;;;;;;7.03;4.22;;;;;;;;;;5046430;28;20224;-61
2023/10/12 09:15:45;;;;;;;8.02;4.38;;;;;;;;;;5055983;28;20290;-63
2023/10/12 09:18:12;;;;;;;10.00;4.82;;;;;;;;;;5065115;28;20234;-61
2023/10/12 09:20:57;;;;;;;5.60;4.35;;;;;;;;;;5057657;28;20211;-61
2023/10/12 09:23:28;;;;;;;13.40;4.80;;;;;;;;;;5048218;28;20204;-69
2023/10/12 09:26:15;;;;;;;12.15;4.45;;;;;;;;;;5049910;28;20208;-61
2023/10/12 09:28:53;;;;;;;9.18;4.90;;;;;;;;;;5063078;28;20237;-61
2023/10/12 09:31:48;;;;;;;10.82;4.45;;;;;;;;;;5052804;28;20235;-60
2023/10/12 09:34:42;;;;;;;8.80;5.18;;;;;;;;;;5040821;28;20286;-61
2023/10/12 09:37:09;;;;;;;6.80;4.47;;;;;;;;;;5043089;28;20216;-65
2023/10/12 09:39:36;;;;;;;9.27;5.07;;;;;;;;;;5042348;28;20215;-66
2023/10/12 09:42:13;;;;;;;7.43;4.80;;;;;;;;;;5047985;28;20216;-65
2023/10/12 09:44:41;;;;;;;4.82;4.32;;;;;;;;;;5045657;28;20761;-69
2023/10/12 09:47:12;;;;;;;9.95;4.88;;;;;;;;;;5041072;28;20224;-70
2023/10/12 09:49:49;;;;;;;13.18;4.90;;;;;;;;;;5047817;28;20209;-66
2023/10/12 09:52:23;;;;;;;8.10;4.65;;;;;;;;;;5048808;28;20242;-66
2023/10/12 09:54:56;;;;;;;9.10;4.43;;;;;;;;;;5044702;28;20322;-65
2023/10/12 09:57:25;;;;;;;10.00;4.47;;;;;;;;;;5048455;28;20200;-67
2023/10/12 09:59:53;;;;;;;7.95;4.18;;;;;;;;;;5048115;28;20677;-63
2023/10/12 10:02:30;;;;;;;7.68;4.07;;;;;;;;;;5048155;28;20446;-63
2023/10/12 10:05:10;;;;;;;6.97;4.22;;;;;;;;;;5047958;28;20207;-63
2023/10/12 10:07:40;;;;;;;4.43;4.03;;;;;;;;;;5048257;28;20250;-62
2023/10/12 10:10:16;;;;;;;7.07;4.43;;;;;;;;;;5048297;28;20206;-63
2023/10/12 10:12:43;;;;;;;6.43;4.30;;;;;;;;;;5048449;28;20211;-62
2023/10/12 10:15:14;;;;;;;8.25;4.35;;;;;;;;;;5047658;28;20658;-65
2023/10/12 10:17:47;;;;;;;8.27;4.45;;;;;;;;;;5047701;28;20195;-65
2023/10/12 10:23:03;;;;;;;7.70;4.60;;;;;;;;;;5045416;28;20783;-63
2023/10/12 10:25:34;;;;;;;6.90;4.68;;;;;;;;;;5047800;28;20676;-65
2023/10/12 10:28:06;;;;;;;6.22;4.20;;;;;;;;;;5048245;28;20254;-67
2023/10/12 10:30:40;;;;;;;5.70;4.40;;;;;;;;;;5047597;28;20295;-66
2023/10/12 10:33:12;;;;;;;10.15;4.63;;;;;;;;;;5041167;28;20215;-65
2023/10/12 10:35:54;;;;;;;5.65;4.68;;;;;;;;;;5035987;28;20268;-67
2023/10/12 10:38:21;;;;;;;9.23;4.78;;;;;;;;;;5046479;28;20219;-67
2023/10/12 10:40:49;;;;;;;8.07;4.90;;;;;;;;;;5047038;28;20203;-68
2023/10/12 10:43:16;;;;;;;7.43;5.18;;;;;;;;;;5047087;28;20318;-67
2023/10/12 10:45:53;;;;;;;7.38;4.90;;;;;;;;;;5047165;28;20219;-71
2023/10/12 10:48:22;;;;;;;5.45;4.32;;;;;;;;;;5046953;28;20227;-67
2023/10/12 10:50:51;;;;;;;10.85;4.75;;;;;;;;;;5047121;28;20211;-66
2023/10/12 10:53:19;;;;;;;9.32;4.80;;;;;;;;;;5045650;28;20219;-66
2023/10/12 10:55:47;;;;;;;9.88;4.65;;;;;;;;;;5047096;28;20219;-66
2023/10/12 10:58:17;;;;;;;8.40;4.95;;;;;;;;;;5047021;28;20626;-66
2023/10/12 11:00:46;;;;;;;13.20;5.10;;;;;;;;;;5045964;28;20553;-65
2023/10/12 11:03:16;;;;;;;6.20;4.43;;;;;;;;;;5042111;28;20706;-65
2023/10/12 11:05:46;;;;;;;9.57;4.88;;;;;;;;;;5046872;28;20748;-66
2023/10/12 11:08:22;;;;;;;6.40;4.95;;;;;;;;;;5047174;28;20238;-64
2023/10/12 11:13:34;;;;;;;7.38;4.85;;;;;;;;;;5046746;28;20264;-64
2023/10/12 11:16:07;;;;;;;8.10;4.80;;;;;;;;;;5055270;28;20207;-65
2023/10/12 11:18:36;;;;;;;6.65;4.80;;;;;;;;;;5045075;28;20203;-65
2023/10/12 11:21:07;;;;;;;10.32;5.20;;;;;;;;;;5045795;28;20215;-63
2023/10/12 11:23:35;;;;;;;8.07;5.22;;;;;;;;;;5046158;28;20200;-63
2023/10/12 11:26:07;;;;;;;10.15;5.30;;;;;;;;;;5046560;28;20751;-64
2023/10/12 11:28:34;;;;;;;6.25;4.72;;;;;;;;;;5044823;28;20830;-64
2023/10/12 11:31:17;;;;;;;9.82;4.80;;;;;;;;;;5039915;28;20337;-65
2023/10/12 11:33:49;;;;;;;5.90;4.60;;;;;;;;;;5043574;28;20215;-64
2023/10/12 11:36:23;;;;;;;10.93;4.95;;;;;;;;;;5039001;28;20227;-73
2023/10/12 11:38:58;;;;;;;8.98;4.82;;;;;;;;;;5046800;28;20234;-65
2023/10/12 11:41:26;;;;;;;7.82;4.93;;;;;;;;;;5053862;28;20242;-65
2023/10/12 11:43:53;;;;;;;6.43;4.95;;;;;;;;;;5066133;28;20364;-67
2023/10/12 11:46:20;;;;;;;9.05;5.35;;;;;;;;;;5046151;28;20215;-66
2023/10/12 11:49:01;;;;;;;5.45;5.03;;;;;;;;;;5046271;28;20273;-64
2023/10/12 11:51:30;;;;;;;10.27;5.25;;;;;;;;;;5038317;28;20210;-65
2023/10/12 11:53:57;;;;;;;11.77;5.00;;;;;;;;;;5040031;28;20253;-67
2023/10/12 11:56:25;;;;;;;7.10;5.07;;;;;;;;;;5033312;28;20215;-65
2023/10/12 11:58:54;;;;;;;10.63;4.97;;;;;;;;;;5044804;28;20204;-64
2023/10/12 12:01:22;;;;;;;9.93;4.93;;;;;;;;;;5038240;28;20524;-66
2023/10/12 12:03:53;;;;;;;13.07;5.88;;;;;;;;;;5043810;28;20208;-66
2023/10/12 12:06:21;;;;;;;10.50;5.93;;;;;;;;;;5046169;28;20210;-64
2023/10/12 12:08:50;;;;;;;6.25;5.30;;;;;;;;;;5040608;28;20670;-65
2023/10/12 12:11:19;;;;;;;9.60;4.90;;;;;;;;;;5041044;28;20207;-63
2023/10/12 12:13:51;;;;;;;9.80;5.38;;;;;;;;;;5036183;28;20292;-62
2023/10/12 12:16:20;;;;;;;5.63;5.10;;;;;;;;;;5040428;28;20242;-64
2023/10/12 12:18:51;;;;;;;7.78;4.70;;;;;;;;;;5046428;28;20273;-62
2023/10/12 12:21:29;;;;;;;9.77;5.78;;;;;;;;;;5045149;28;20204;-62
2023/10/12 12:24:00;;;;;;;6.80;5.45;;;;;;;;;;5045281;28;20238;-64
2023/10/12 12:26:33;;;;;;;8.50;5.15;;;;;;;;;;5043846;28;20588;-64
2023/10/12 12:29:03;;;;;;;6.55;5.40;;;;;;;;;;5044739;28;20227;-62
2023/10/12 12:31:32;;;;;;;9.52;4.97;;;;;;;;;;5045158;28;20254;-62
2023/10/12 12:33:59;;;;;;;7.75;5.38;;;;;;;;;;5045355;28;20247;-60
2023/10/12 12:36:29;;;;;;;7.82;5.38;;;;;;;;;;5049191;28;20328;-61
2023/10/12 12:39:00;;;;;;;8.48;5.28;;;;;;;;;;5045086;28;20364;-60
2023/10/12 12:41:29;;;;;;;7.03;4.93;;;;;;;;;;5041538;28;20206;-61
2023/10/12 12:43:58;;;;;;;8.80;5.13;;;;;;;;;;5043549;28;20309;-62
2023/10/12 12:46:26;;;;;;;9.02;5.90;;;;;;;;;;5042845;28;20211;-64
2023/10/12 12:48:54;;;;;;;9.48;5.63;;;;;;;;;;5044966;28;20239;-66
2023/10/12 12:51:21;;;;;;;10.13;5.40;;;;;;;;;;5048499;28;20211;-66
2023/10/12 12:53:50;;;;;;;7.10;5.00;;;;;;;;;;5048543;28;20230;-62
2023/10/12 12:56:20;;;;;;;8.38;5.28;;;;;;;;;;5049157;28;20233;-63
2023/10/12 12:58:48;;;;;;;11.25;5.10;;;;;;;;;;5047860;28;20222;-63
2023/10/12 13:01:16;;;;;;;7.60;5.38;;;;;;;;;;5049521;28;20204;-63
2023/10/12 13:03:43;;;;;;;7.97;5.53;;;;;;;;;;5048925;28;20285;-63
2023/10/12 13:06:11;;;;;;;10.32;5.35;;;;;;;;;;5049075;28;20212;-63
2023/10/12 13:08:39;;;;;;;49.25;7.70;;;;;;;;;;5049551;28;20230;-63
2023/10/12 13:11:06;;;;;;;6.72;5.40;;;;;;;;;;5048845;28;20221;-63
2023/10/12 13:13:35;;;;;;;5.10;4.60;;;;;;;;;;5046438;28;20206;-64
2023/10/12 13:16:04;;;;;;;8.27;5.18;;;;;;;;;;5049433;28;20208;-64
2023/10/12 13:18:32;;;;;;;10.35;5.30;;;;;;;;;;5049512;28;20208;-62
2023/10/12 13:21:00;;;;;;;8.48;5.13;;;;;;;;;;5048763;28;20625;-61
2023/10/12 13:23:29;;;;;;;22.73;13.75;;;;;;;;;;5047718;28;20682;-61
2023/10/12 13:25:57;;;;;;;8.88;5.72;;;;;;;;;;5041509;28;20277;-67
2023/10/12 13:28:24;;;;;;;7.07;5.40;;;;;;;;;;5048613;28;20235;-64
2023/10/12 13:30:52;;;;;;;11.38;5.30;;;;;;;;;;5048499;28;20367;-64
2023/10/12 13:33:23;;;;;;;7.75;5.28;;;;;;;;;;5042601;28;20212;-60
2023/10/12 13:35:55;;;;;;;7.82;5.68;;;;;;;;;;5046620;28;20303;-72
2023/10/12 13:38:22;;;;;;;9.40;6.68;;;;;;;;;;5046810;28;20195;-63
2023/10/12 13:40:50;;;;;;;15.07;7.60;;;;;;;;;;5044642;28;20301;-77
2023/10/12 13:43:21;;;;;;;12.77;6.95;;;;;;;;;;5048137;28;20227;-63
2023/10/12 13:45:49;;;;;;;9.82;6.85;;;;;;;;;;5047767;28;20252;-61
2023/10/12 13:48:21;;;;;;;9.27;6.20;;;;;;;;;;5047943;28;20234;-61
2023/10/12 13:50:52;;;;;;;6.00;5.40;;;;;;;;;;5041390;28;20239;-61
2023/10/12 13:53:20;;;;;;;8.32;5.53;;;;;;;;;;5060854;28;20200;-61
2023/10/12 13:55:48;;;;;;;13.18;5.70;;;;;;;;;;5046014;28;20222;-62
2023/10/12 13:58:15;;;;;;;7.22;5.28;;;;;;;;;;5047719;28;20204;-60
2023/10/12 14:00:43;;;;;;;8.43;4.55;;;;;;;;;;5044891;28;20215;-60
2023/10/12 14:03:14;;;;;;;9.80;5.40;;;;;;;;;;5047536;28;20211;-61
2023/10/12 14:05:42;;;;;;;8.15;4.93;;;;;;;;;;5048295;28;20207;-61
2023/10/12 14:08:09;;;;;;;7.75;5.00;;;;;;;;;;5048508;28;20214;-64
2023/10/12 14:10:40;;;;;;;10.20;4.78;;;;;;;;;;5045949;28;20216;-62
2023/10/12 14:13:08;;;;;;;8.15;5.30;;;;;;;;;;5043336;28;20207;-61
2023/10/12 14:15:36;;;;;;;8.85;5.05;;;;;;;;;;5044937;28;20294;-64
2023/10/12 14:18:04;;;;;;;6.55;5.13;;;;;;;;;;5047569;28;20239;-62
2023/10/12 14:20:32;;;;;;;12.50;7.82;;;;;;;;;;5047102;28;20199;-61
2023/10/12 14:23:06;;;;;;;9.18;5.32;;;;;;;;;;5047820;28;20208;-61
2023/10/12 14:25:35;;;;;;;13.57;6.50;;;;;;;;;;5046077;28;20280;-63
2023/10/12 14:28:03;;;;;;;8.13;5.45;;;;;;;;;;5047720;28;20292;-61
2023/10/12 14:30:30;;;;;;;7.40;4.82;;;;;;;;;;5048584;28;20351;-63
2023/10/12 14:32:57;;;;;;;5.63;5.10;;;;;;;;;;5047644;28;20231;-61
2023/10/12 14:35:27;;;;;;;6.25;5.60;;;;;;;;;;5046603;28;20883;-61
2023/10/12 14:37:55;;;;;;;13.52;5.82;;;;;;;;;;5047282;28;20750;-63
2023/10/12 14:40:29;;;;;;;8.82;5.80;;;;;;;;;;5051044;28;20230;-62
2023/10/12 14:43:05;;;;;;;16.70;9.52;;;;;;;;;;5047174;28;20245;-63
2023/10/12 14:45:32;;;;;;;13.93;8.88;;;;;;;;;;5039445;28;20666;-65
2023/10/12 14:47:59;;;;;;;7.22;6.10;;;;;;;;;;5045894;28;20302;-64
2023/10/12 14:50:27;;;;;;;10.98;5.80;;;;;;;;;;5046106;28;20235;-64
2023/10/12 14:52:54;;;;;;;18.38;8.73;;;;;;;;;;5042443;28;20208;-63
2023/10/12 14:55:24;;;;;;;7.20;5.97;;;;;;;;;;5042498;28;20689;-64
2023/10/12 14:57:52;;;;;;;29.67;15.00;;;;;;;;;;5045116;28;20227;-62
2023/10/12 15:00:27;;;;;;;12.20;7.30;;;;;;;;;;5044927;28;20208;-65
2023/10/12 15:02:57;;;;;;;9.25;5.60;;;;;;;;;;5051811;28;20211;-62
2023/10/12 15:05:27;;;;;;;8.05;5.68;;;;;;;;;;5052836;28;20280;-63
2023/10/12 15:07:55;;;;;;;6.75;5.38;;;;;;;;;;5050917;28;20219;-63
2023/10/12 15:10:22;;;;;;;9.68;6.03;;;;;;;;;;5043753;28;20309;-62
2023/10/12 15:12:50;;;;;;;5.88;5.07;;;;;;;;;;5052663;28;20264;-63
2023/10/12 15:15:24;;;;;;;9.00;5.30;;;;;;;;;;5044047;28;20295;-62
2023/10/12 15:17:53;;;;;;;8.60;5.53;;;;;;;;;;5043978;28;20202;-62
2023/10/12 15:20:22;;;;;;;10.23;5.63;;;;;;;;;;5048276;28;20289;-62
2023/10/12 15:22:49;;;;;;;9.02;5.90;;;;;;;;;;5048161;28;20320;-62
2023/10/12 15:25:18;;;;;;;9.48;5.47;;;;;;;;;;5047845;28;20211;-62
2023/10/12 15:27:46;;;;;;;8.98;5.78;;;;;;;;;;5061214;28;20215;-62
2023/10/12 15:30:14;;;;;;;12.75;6.45;;;;;;;;;;5049749;28;20681;-62
2023/10/12 15:32:43;;;;;;;8.38;5.53;;;;;;;;;;5061655;28;20228;-63